createdAt,value
2022-08-05T00:00:21.616Z,86018.80
2022-08-05T00:02:52.284Z,86025.00
2022-08-05T00:06:02.985Z,86030.60
2022-08-05T00:08:35.283Z,86044.60
2022-08-05T00:11:04.828Z,86050.00
2022-08-05T00:13:53.065Z,86055.40
2022-08-05T00:16:35.646Z,86066.00
2022-08-05T00:19:06.805Z,86062.20
2022-08-05T00:21:36.259Z,86072.80
2022-08-05T00:24:10.575Z,86090.60
2022-08-05T00:26:43.409Z,86102.40
2022-08-05T00:29:25.745Z,86118.00
2022-08-05T00:32:13.435Z,86124.60
2022-08-05T00:35:03.902Z,86156.40
2022-08-05T00:37:52.675Z,86139.60
2022-08-05T00:40:28.093Z,86149.80
2022-08-05T00:43:07.685Z,86142.20
2022-08-05T00:45:43.146Z,86135.20
2022-08-05T00:48:15.243Z,86123.00
2022-08-05T00:50:47.843Z,86127.20
2022-08-05T00:54:00.439Z,86128.80
2022-08-05T00:56:09.500Z,86118.80
2022-08-05T00:58:42.499Z,86120.40
2022-08-05T01:01:16.625Z,86128.20
2022-08-05T01:04:14.275Z,86149.00
2022-08-05T01:06:48.482Z,86172.40
2022-08-05T01:09:20.120Z,86171.60
2022-08-05T01:11:56.105Z,86180.00
2022-08-05T01:14:37.252Z,86181.40
2022-08-05T01:17:22.780Z,86190.20
2022-08-05T01:20:27.577Z,86175.20
2022-08-05T01:23:22.901Z,86152.40
2022-08-05T01:26:26.315Z,86143.80
2022-08-05T01:29:09.815Z,86139.60
2022-08-05T01:31:56.508Z,86133.80
2022-08-05T01:34:37.546Z,86124.00
2022-08-05T01:37:44.287Z,86111.00
2022-08-05T01:40:17.768Z,86112.20
2022-08-05T01:42:50.522Z,86119.60
2022-08-05T01:45:22.061Z,86125.40
2022-08-05T01:47:55.573Z,86125.00
2022-08-05T01:50:54.807Z,86127.20
2022-08-05T01:53:58.025Z,86135.20
2022-08-05T01:58:13.737Z,86142.20
2022-08-05T01:59:18.066Z,86142.40
2022-08-05T02:01:54.746Z,86138.80
2022-08-05T02:04:30.228Z,86129.80
2022-08-05T02:07:03.524Z,86121.60
2022-08-05T02:09:35.804Z,86123.60
2022-08-05T02:12:54.986Z,86117.00
2022-08-05T02:15:43.286Z,86129.20
2022-08-05T02:18:34.990Z,86130.20
2022-08-05T02:21:15.671Z,86136.60
2022-08-05T02:23:50.236Z,86136.80
2022-08-05T02:26:29.534Z,86139.00
2022-08-05T02:28:59.541Z,86133.80
2022-08-05T02:31:35.797Z,86129.80
2022-08-05T02:34:15.297Z,86130.40
2022-08-05T02:36:58.764Z,86128.20
2022-08-05T02:39:38.245Z,86130.20
2022-08-05T02:42:12.195Z,86136.60
2022-08-05T02:44:57.434Z,86135.40
2022-08-05T02:47:58.381Z,86133.60
2022-08-05T02:50:18.915Z,86127.20
2022-08-05T02:52:49.470Z,86134.40
2022-08-05T02:55:54.570Z,86138.60
2022-08-05T02:58:13.300Z,86140.20
2022-08-05T03:00:46.565Z,86142.20
2022-08-05T03:03:23.467Z,86138.80
2022-08-05T03:06:56.940Z,86143.40
2022-08-05T03:08:44.274Z,86152.00
2022-08-05T03:11:54.625Z,86151.20
2022-08-05T03:14:14.715Z,86157.00
2022-08-05T03:16:43.994Z,86164.40
2022-08-05T03:19:20.344Z,86163.60
2022-08-05T03:22:02.466Z,86173.40
2022-08-05T03:24:34.268Z,86177.60
2022-08-05T03:27:06.693Z,86176.60
2022-08-05T03:29:44.738Z,86180.80
2022-08-05T03:32:17.046Z,86185.40
2022-08-05T03:34:51.346Z,86194.40
2022-08-05T03:37:22.414Z,86195.60
2022-08-05T03:40:01.425Z,86200.60
2022-08-05T03:42:41.520Z,86208.40
2022-08-05T03:45:21.984Z,86209.40
2022-08-05T03:47:56.935Z,86218.20
2022-08-05T03:50:49.525Z,86219.40
2022-08-05T03:55:06.866Z,86217.80
2022-08-05T03:56:49.967Z,86214.80
2022-08-05T03:59:29.186Z,86215.40
2022-08-05T04:02:39.182Z,86214.00
2022-08-05T04:05:11.546Z,86211.60
2022-08-05T04:07:53.013Z,86207.80
2022-08-05T04:10:33.337Z,86214.80
2022-08-05T04:13:09.401Z,86218.60
2022-08-05T04:15:39.029Z,86217.40
2022-08-05T04:18:26.229Z,86214.00
2022-08-05T04:20:59.770Z,86223.20
2022-08-05T04:24:05.082Z,86228.40
2022-08-05T04:26:20.926Z,86225.40
2022-08-05T04:28:51.136Z,86227.40
2022-08-05T04:31:22.109Z,86233.80
2022-08-05T04:34:31.175Z,86236.80
2022-08-05T04:36:50.275Z,86237.40
2022-08-05T04:39:23.176Z,86235.60
2022-08-05T04:41:52.836Z,86235.40
2022-08-05T04:44:29.216Z,86235.00
2022-08-05T04:47:09.483Z,86231.00
2022-08-05T04:50:02.976Z,86232.40
2022-08-05T04:52:33.359Z,86231.80
2022-08-05T04:55:14.209Z,86226.20
2022-08-05T04:57:54.154Z,86229.40
2022-08-05T05:00:24.026Z,86232.40
2022-08-05T05:02:54.071Z,86231.20
2022-08-05T05:05:28.455Z,86233.00
2022-08-05T05:08:14.109Z,86235.60
2022-08-05T05:10:57.132Z,86236.60
2022-08-05T05:13:26.276Z,86239.40
2022-08-05T05:16:02.222Z,86232.60
2022-08-05T05:18:35.345Z,86235.60
2022-08-05T05:21:06.064Z,86227.80
2022-08-05T05:23:39.029Z,86226.80
2022-08-05T05:26:28.541Z,86224.80
2022-08-05T05:29:02.592Z,86228.80
2022-08-05T05:31:46.161Z,86235.80
2022-08-05T05:34:17.317Z,86231.40
2022-08-05T05:36:51.228Z,86238.40
2022-08-05T05:39:20.766Z,86238.40
2022-08-05T05:41:54.409Z,86248.00
2022-08-05T05:44:35.706Z,86248.60
2022-08-05T05:47:13.456Z,86256.40
2022-08-05T05:50:01.562Z,86266.20
2022-08-05T05:52:38.058Z,86268.80
2022-08-05T05:55:16.909Z,86272.40
2022-08-05T05:57:52.428Z,86272.80
2022-08-05T06:00:27.708Z,86276.60
2022-08-05T06:03:40.757Z,86279.40
2022-08-05T06:05:55.518Z,86276.80
2022-08-05T06:08:31.851Z,86278.60
2022-08-05T06:11:02.991Z,86280.20
2022-08-05T06:13:40.830Z,86284.00
2022-08-05T06:16:29.541Z,86289.80
2022-08-05T06:19:05.750Z,86289.20
2022-08-05T06:21:38.786Z,86287.80
2022-08-05T06:24:12.786Z,86283.20
2022-08-05T06:26:52.012Z,86286.00
2022-08-05T06:29:52.008Z,86282.80
2022-08-05T06:32:26.262Z,86285.40
2022-08-05T06:34:59.665Z,86290.60
2022-08-05T06:37:57.963Z,86289.60
2022-08-05T06:40:27.829Z,86289.80
2022-08-05T06:42:57.769Z,86289.80
2022-08-05T06:45:44.862Z,86290.20
2022-08-05T06:48:47.365Z,86295.20
2022-08-05T06:51:09.594Z,86299.20
2022-08-05T06:53:39.515Z,86298.60
2022-08-05T06:56:25.847Z,86300.20
2022-08-05T06:58:57.317Z,86296.80
2022-08-05T07:01:27.582Z,86299.40
2022-08-05T07:04:03.157Z,86296.60
2022-08-05T07:06:32.780Z,86299.80
2022-08-05T07:09:04.382Z,86302.20
2022-08-05T07:11:37.124Z,86300.80
2022-08-05T07:14:30.059Z,86298.20
2022-08-05T07:18:08.338Z,86297.80
2022-08-05T07:20:32.169Z,86290.80
2022-08-05T07:22:45.707Z,86296.60
2022-08-05T07:25:54.433Z,86298.00
2022-08-05T07:28:09.598Z,86298.00
2022-08-05T07:30:41.298Z,86304.80
2022-08-05T07:33:16.687Z,86307.80
2022-08-05T07:36:01.558Z,86310.40
2022-08-05T07:38:43.350Z,86307.20
2022-08-05T07:42:13.933Z,86312.20
2022-08-05T07:44:19.046Z,86312.40
2022-08-05T07:46:50.698Z,86312.80
2022-08-05T07:49:21.560Z,86315.00
2022-08-05T07:51:54.223Z,86312.20
2022-08-05T07:54:31.148Z,86317.40
2022-08-05T07:57:16.927Z,86318.80
2022-08-05T07:59:54.731Z,86322.40
2022-08-05T08:03:15.420Z,86324.00
2022-08-05T08:05:20.108Z,86324.40
2022-08-05T08:08:00.230Z,86325.80
2022-08-05T08:10:30.803Z,86326.60
2022-08-05T08:13:00.739Z,86320.40
2022-08-05T08:16:33.433Z,86330.00
2022-08-05T08:18:21.245Z,86330.40
2022-08-05T08:21:02.448Z,86331.60
2022-08-05T08:24:01.606Z,86331.60
2022-08-05T08:26:26.847Z,86332.80
2022-08-05T08:29:45.515Z,86331.80
2022-08-05T08:31:53.269Z,86331.00
2022-08-05T08:34:29.896Z,86328.80
2022-08-05T08:37:04.813Z,86335.80
2022-08-05T08:39:37.488Z,86342.40
2022-08-05T08:42:33.815Z,86338.60
2022-08-05T08:45:17.714Z,86341.40
2022-08-05T08:48:07.566Z,86350.20
2022-08-05T08:51:22.091Z,86346.60
2022-08-05T08:53:44.454Z,86351.20
2022-08-05T08:56:14.980Z,86355.60
2022-08-05T08:58:47.957Z,86353.20
2022-08-05T09:01:20.034Z,86359.60
2022-08-05T09:03:57.551Z,86358.40
2022-08-05T09:06:30.784Z,86361.60
2022-08-05T09:09:04.138Z,86362.00
2022-08-05T09:11:52.007Z,86364.40
2022-08-05T09:14:58.770Z,86357.80
2022-08-05T09:17:41.354Z,86362.60
2022-08-05T09:20:05.959Z,86361.00
2022-08-05T09:23:19.964Z,86365.60
2022-08-05T09:26:06.650Z,86369.20
2022-08-05T09:28:41.534Z,86367.00
2022-08-05T09:31:44.111Z,86371.80
2022-08-05T09:34:13.153Z,86377.80
2022-08-05T09:36:54.382Z,86379.60
2022-08-05T09:39:39.482Z,86381.40
2022-08-05T09:42:28.047Z,86381.20
2022-08-05T09:45:17.468Z,86380.80
2022-08-05T09:47:55.958Z,86379.80
2022-08-05T09:50:43.986Z,86379.80
2022-08-05T09:53:22.822Z,86385.00
2022-08-05T09:56:05.154Z,86385.20
2022-08-05T09:58:42.353Z,86381.80
2022-08-05T10:01:32.069Z,86384.40
2022-08-05T10:04:13.598Z,86384.00
2022-08-05T10:07:01.466Z,86383.40
2022-08-05T10:09:45.121Z,86383.80
2022-08-05T10:12:30.052Z,86381.80
2022-08-05T10:15:44.917Z,86388.00
2022-08-05T10:18:23.884Z,86389.00
2022-08-05T10:20:58.671Z,86394.00
2022-08-05T10:23:59.107Z,86394.60
2022-08-05T10:26:32.604Z,86394.80
2022-08-05T10:29:03.632Z,86395.40
2022-08-05T10:32:53.122Z,86394.80
2022-08-05T10:34:25.766Z,86392.80
2022-08-05T10:36:59.369Z,86398.00
2022-08-05T10:39:59.194Z,86406.00
2022-08-05T10:42:33.600Z,86401.00
2022-08-05T10:45:20.891Z,86403.20
2022-08-05T10:48:31.422Z,86410.40
2022-08-05T10:51:23.196Z,86408.80
2022-08-05T10:54:23.423Z,86411.00
2022-08-05T10:56:58.047Z,86412.40
2022-08-05T11:00:02.606Z,86410.80
2022-08-05T11:02:37.620Z,86418.60
2022-08-05T11:05:14.421Z,86422.80
2022-08-05T11:08:34.088Z,86420.20
2022-08-05T11:11:52.474Z,86424.40
2022-08-05T11:14:57.428Z,86426.00
2022-08-05T11:17:59.654Z,86424.60
2022-08-05T11:20:44.317Z,86430.80
2022-08-05T11:24:04.886Z,86432.80
2022-08-05T11:26:28.590Z,86431.60
2022-08-05T11:29:12.604Z,86432.40
2022-08-05T11:31:58.204Z,86435.20
2022-08-05T11:34:47.647Z,86438.40
2022-08-05T11:38:29.891Z,86439.20
2022-08-05T11:41:12.692Z,86447.80
2022-08-05T11:44:40.174Z,86448.80
2022-08-05T11:47:12.072Z,86450.20
2022-08-05T11:49:49.694Z,86451.80
2022-08-05T11:52:31.367Z,86454.00
2022-08-05T11:55:07.624Z,86453.80
2022-08-05T11:58:09.111Z,86455.80
2022-08-05T12:00:38.199Z,86462.60
2022-08-05T12:03:31.678Z,86470.40
2022-08-05T12:06:09.896Z,86468.80
2022-08-05T12:08:51.216Z,86474.00
2022-08-05T12:11:40.430Z,86471.20
2022-08-05T12:14:11.256Z,86481.40
2022-08-05T12:16:45.565Z,86484.80
2022-08-05T12:20:27.016Z,86490.60
2022-08-05T12:22:09.655Z,86491.00
2022-08-05T12:24:49.663Z,86489.80
2022-08-05T12:27:32.780Z,86491.20
2022-08-05T12:30:15.409Z,86493.00
2022-08-05T12:32:56.349Z,86499.00
2022-08-05T12:35:39.408Z,86501.20
2022-08-05T12:38:10.911Z,86500.20
2022-08-05T12:40:43.488Z,86510.80
2022-08-05T12:43:20.798Z,86508.00
2022-08-05T12:45:57.871Z,86516.20
2022-08-05T12:48:33.005Z,86515.60
2022-08-05T12:52:10.061Z,86521.80
2022-08-05T12:54:16.539Z,86517.20
2022-08-05T12:56:52.244Z,86518.40
2022-08-05T13:00:08.748Z,86516.80
2022-08-05T13:02:30.755Z,86518.00
2022-08-05T13:05:00.509Z,86523.40
2022-08-05T13:07:57.648Z,86525.20
2022-08-05T13:10:20.678Z,86528.00
2022-08-05T13:12:51.023Z,86529.60
2022-08-05T13:15:35.824Z,86529.80
2022-08-05T13:18:11.567Z,86535.00
2022-08-05T13:20:50.824Z,86530.00
2022-08-05T13:23:22.250Z,86533.20
2022-08-05T13:25:59.419Z,86533.20
2022-08-05T13:28:32.387Z,86537.00
2022-08-05T13:31:11.118Z,86543.80
2022-08-05T13:34:22.683Z,86543.60
2022-08-05T13:36:34.409Z,86543.40
2022-08-05T13:39:08.380Z,86546.20
2022-08-05T13:41:54.068Z,86549.60
2022-08-05T13:44:25.823Z,86548.80
2022-08-05T13:47:08.535Z,86551.40
2022-08-05T13:49:45.217Z,86557.80
2022-08-05T13:52:29.083Z,86559.80
2022-08-05T13:55:01.214Z,86559.00
2022-08-05T13:57:51.158Z,86565.20
2022-08-05T14:00:27.097Z,86573.60
2022-08-05T14:03:01.083Z,86568.20
2022-08-05T14:06:04.539Z,86577.40
2022-08-05T14:08:28.070Z,86579.00
2022-08-05T14:11:20.591Z,86576.00
2022-08-05T14:13:54.988Z,86580.80
2022-08-05T14:16:27.453Z,86582.00
2022-08-05T14:18:56.736Z,86584.20
2022-08-05T14:22:09.874Z,86590.20
2022-08-05T14:24:15.072Z,86591.60
2022-08-05T14:27:08.380Z,86596.80
2022-08-05T14:29:38.490Z,86601.20
2022-08-05T14:32:14.261Z,86601.40
2022-08-05T14:34:46.751Z,86597.20
2022-08-05T14:37:16.173Z,86598.40
2022-08-05T14:39:50.098Z,86599.20
2022-08-05T14:42:26.242Z,86600.40
2022-08-05T14:44:56.668Z,86599.80
2022-08-05T14:48:03.644Z,86601.60
2022-08-05T14:50:19.013Z,86603.40
2022-08-05T14:52:56.885Z,86606.00
2022-08-05T14:55:39.592Z,86603.80
2022-08-05T14:58:13.810Z,86600.80
2022-08-05T15:00:58.946Z,86604.40
2022-08-05T15:03:34.137Z,86600.60
2022-08-05T15:06:15.014Z,86601.20
2022-08-05T15:09:01.279Z,86600.80
2022-08-05T15:11:53.254Z,86594.60
2022-08-05T15:14:35.050Z,86591.40
2022-08-05T15:17:45.058Z,86599.40
2022-08-05T15:20:01.964Z,86601.40
2022-08-05T15:22:31.163Z,86599.60
2022-08-05T15:25:00.559Z,86594.40
2022-08-05T15:27:42.941Z,86591.40
2022-08-05T15:30:21.788Z,86604.20
2022-08-05T15:32:52.274Z,86599.40
2022-08-05T15:35:21.986Z,86596.40
2022-08-05T15:38:32.281Z,86604.80
2022-08-05T15:41:02.781Z,86601.00
2022-08-05T15:43:31.203Z,86606.40
2022-08-05T15:46:15.774Z,86611.60
2022-08-05T15:48:52.880Z,86614.80
2022-08-05T15:52:10.383Z,86611.00
2022-08-05T15:54:19.874Z,86604.00
2022-08-05T15:57:07.566Z,86605.40
2022-08-05T15:59:38.406Z,86611.00
2022-08-05T16:02:14.786Z,86609.60
2022-08-05T16:04:49.832Z,86618.00
2022-08-05T16:07:19.263Z,86608.80
2022-08-05T16:09:52.091Z,86611.80
2022-08-05T16:12:23.674Z,86612.60
2022-08-05T16:14:53.162Z,86613.20
2022-08-05T16:17:22.552Z,86616.20
2022-08-05T16:20:12.138Z,86610.60
2022-08-05T16:22:41.839Z,86607.60
2022-08-05T16:25:11.724Z,86613.20
2022-08-05T16:28:01.063Z,86611.20
2022-08-05T16:30:33.399Z,86605.00
2022-08-05T16:33:03.369Z,86605.00
2022-08-05T16:35:34.620Z,86601.60
2022-08-05T16:38:24.326Z,86606.80
2022-08-05T16:41:00.309Z,86605.20
2022-08-05T16:43:36.470Z,86602.00
2022-08-05T16:46:23.505Z,86604.40
2022-08-05T16:48:55.666Z,86602.40
2022-08-05T16:51:30.801Z,86608.60
2022-08-05T16:54:16.238Z,86608.80
2022-08-05T16:56:52.145Z,86610.00
2022-08-05T16:59:21.797Z,86606.20
2022-08-05T17:01:53.630Z,86612.80
2022-08-05T17:04:27.821Z,86618.60
2022-08-05T17:07:03.305Z,86620.20
2022-08-05T17:09:38.935Z,86619.80
2022-08-05T17:12:50.410Z,86628.20
2022-08-05T17:15:15.624Z,86624.80
2022-08-05T17:17:55.073Z,86622.00
2022-08-05T17:20:25.201Z,86631.80
2022-08-05T17:22:55.908Z,86635.20
2022-08-05T17:25:39.508Z,86630.80
2022-08-05T17:28:10.171Z,86633.40
2022-08-05T17:30:50.440Z,86634.40
2022-08-05T17:33:23.167Z,86635.00
2022-08-05T17:36:08.783Z,86630.00
2022-08-05T17:38:39.709Z,86629.60
2022-08-05T17:41:11.554Z,86633.60
2022-08-05T17:43:59.875Z,86629.40
2022-08-05T17:46:29.155Z,86631.20
2022-08-05T17:48:58.455Z,86633.40
2022-08-05T17:51:27.850Z,86631.60
2022-08-05T17:54:09.641Z,86639.40
2022-08-05T17:56:39.291Z,86640.40
2022-08-05T17:59:08.705Z,86644.80
2022-08-05T18:01:42.707Z,86645.20
2022-08-05T18:04:21.457Z,86646.40
2022-08-05T18:07:01.153Z,86644.00
2022-08-05T18:09:59.501Z,86648.00
2022-08-05T18:12:24.496Z,86645.80
2022-08-05T18:14:54.589Z,86644.40
2022-08-05T18:18:00.240Z,86648.80
2022-08-05T18:20:15.193Z,86652.00
2022-08-05T18:22:54.187Z,86655.40
2022-08-05T18:25:25.313Z,86652.60
2022-08-05T18:28:05.224Z,86660.00
2022-08-05T18:30:35.499Z,86660.20
2022-08-05T18:33:13.515Z,86661.40
2022-08-05T18:36:00.639Z,86660.80
2022-08-05T18:38:42.332Z,86659.80
2022-08-05T18:41:53.739Z,86662.60
2022-08-05T18:44:06.185Z,86658.00
2022-08-05T18:46:37.070Z,86659.80
2022-08-05T18:49:30.802Z,86661.40
2022-08-05T18:52:35.643Z,86659.80
2022-08-05T18:55:10.432Z,86662.40
2022-08-05T18:57:53.410Z,86664.80
2022-08-05T19:00:30.733Z,86663.40
2022-08-05T19:03:04.767Z,86659.00
2022-08-05T19:06:11.531Z,86659.60
2022-08-05T19:08:30.432Z,86681.20
2022-08-05T19:11:04.614Z,86675.40
2022-08-05T19:13:36.926Z,86679.20
2022-08-05T19:16:24.449Z,86694.00
2022-08-05T19:18:57.130Z,86686.60
2022-08-05T19:21:29.627Z,86689.60
2022-08-05T19:24:12.725Z,86692.40
2022-08-05T19:26:54.059Z,86700.80
2022-08-05T19:29:36.500Z,86703.60
2022-08-05T19:32:11.677Z,86698.00
2022-08-05T19:34:42.006Z,86703.20
2022-08-05T19:37:30.066Z,86703.00
2022-08-05T19:40:16.782Z,86703.80
2022-08-05T19:43:05.004Z,86706.20
2022-08-05T19:45:36.437Z,86715.80
2022-08-05T19:48:07.333Z,86708.40
2022-08-05T19:50:45.672Z,86709.00
2022-08-05T19:53:14.956Z,86711.80
2022-08-05T19:56:14.384Z,86725.80
2022-08-05T19:58:53.509Z,86716.20
2022-08-05T20:01:28.332Z,86726.80
2022-08-05T20:03:59.231Z,86727.00
2022-08-05T20:06:46.516Z,86736.60
2022-08-05T20:09:16.267Z,86738.80
2022-08-05T20:11:47.991Z,86739.60
2022-08-05T20:14:26.907Z,86747.80
2022-08-05T20:16:56.973Z,86739.80
2022-08-05T20:19:36.362Z,86750.00
2022-08-05T20:22:10.833Z,86751.20
2022-08-05T20:24:41.590Z,86744.60
2022-08-05T20:27:11.808Z,86748.60
2022-08-05T20:29:40.897Z,86751.80
2022-08-05T20:32:10.427Z,86761.60
2022-08-05T20:34:42.061Z,86738.40
2022-08-05T20:37:17.741Z,86748.60
2022-08-05T20:40:00.412Z,86760.00
2022-08-05T20:42:29.964Z,86759.40
2022-08-05T20:45:01.506Z,86752.20
2022-08-05T20:47:32.699Z,86758.40
2022-08-05T20:50:03.429Z,86755.00
2022-08-05T20:52:36.987Z,86755.80
2022-08-05T20:55:56.865Z,86751.80
2022-08-05T20:58:00.481Z,86752.20
2022-08-05T21:00:49.543Z,86753.20
2022-08-05T21:03:20.540Z,86767.20
2022-08-05T21:05:55.408Z,86766.60
2022-08-05T21:08:41.354Z,86767.60
2022-08-05T21:12:06.568Z,86770.40
2022-08-05T21:14:03.568Z,86768.60
2022-08-05T21:16:34.942Z,86774.60
2022-08-05T21:19:05.193Z,86784.20
2022-08-05T21:21:39.501Z,86779.40
2022-08-05T21:24:15.393Z,86783.40
2022-08-05T21:26:53.586Z,86788.20
2022-08-05T21:29:32.033Z,86784.80
2022-08-05T21:32:04.076Z,86787.60
2022-08-05T21:34:35.531Z,86775.20
2022-08-05T21:37:05.959Z,86782.80
2022-08-05T21:39:40.683Z,86785.20
2022-08-05T21:42:43.814Z,86783.60
2022-08-05T21:45:00.811Z,86792.00
2022-08-05T21:47:54.836Z,86786.80
2022-08-05T21:50:20.837Z,86803.80
2022-08-05T21:52:51.265Z,86794.80
2022-08-05T21:56:01.576Z,86793.60
2022-08-05T21:58:10.242Z,86809.20
2022-08-05T22:00:41.411Z,86817.00
2022-08-05T22:03:48.957Z,86806.40
2022-08-05T22:06:10.368Z,86811.40
2022-08-05T22:08:42.798Z,86809.60
2022-08-05T22:11:15.569Z,86816.60
2022-08-05T22:14:06.260Z,86812.60
2022-08-05T22:16:51.753Z,86818.20
2022-08-05T22:20:02.225Z,86810.00
2022-08-05T22:22:11.938Z,86817.00
2022-08-05T22:24:59.744Z,86816.80
2022-08-05T22:28:04.920Z,86819.20
2022-08-05T22:30:35.940Z,86822.40
2022-08-05T22:33:15.252Z,86827.60
2022-08-05T22:35:49.174Z,86824.40
2022-08-05T22:38:19.893Z,86820.00
2022-08-05T22:40:55.040Z,86818.20
2022-08-05T22:43:37.015Z,86811.40
2022-08-05T22:46:13.156Z,86812.20
2022-08-05T22:48:44.075Z,86822.00
2022-08-05T22:51:16.055Z,86811.60
2022-08-05T22:53:55.154Z,86818.60
2022-08-05T22:56:30.054Z,86825.80
2022-08-05T22:59:03.242Z,86814.80
2022-08-05T23:02:06.167Z,86820.40
2022-08-05T23:04:37.885Z,86818.60
2022-08-05T23:07:08.216Z,86824.60
2022-08-05T23:09:58.117Z,86826.20
2022-08-05T23:12:27.573Z,86830.40
2022-08-05T23:14:58.082Z,86832.40
2022-08-05T23:17:34.711Z,86828.80
2022-08-05T23:20:17.442Z,86837.00
2022-08-05T23:22:49.990Z,86834.00
2022-08-05T23:25:52.294Z,86829.00
2022-08-05T23:28:18.075Z,86832.80
2022-08-05T23:30:53.077Z,86831.80
2022-08-05T23:34:02.662Z,86834.80
2022-08-05T23:36:14.135Z,86835.40
2022-08-05T23:38:44.814Z,86835.60
2022-08-05T23:41:14.676Z,86824.80
2022-08-05T23:44:06.017Z,86827.00
2022-08-05T23:46:34.049Z,86819.40
2022-08-05T23:49:15.932Z,86814.60
2022-08-05T23:52:05.690Z,86815.60
2022-08-05T23:54:38.518Z,86813.80
2022-08-05T23:57:09.336Z,86820.80
